createdAt,value
2023-03-13T00:02:00.338Z,1.28
2023-03-13T00:07:02.249Z,1.27
2023-03-13T00:12:05.508Z,1.38
2023-03-13T00:17:07.584Z,1.43
2023-03-13T00:22:09.639Z,1.29
2023-03-13T00:27:11.600Z,1.44
2023-03-13T00:32:13.596Z,1.40
2023-03-13T00:37:15.591Z,1.44
2023-03-13T00:42:17.510Z,1.43
2023-03-13T00:47:19.436Z,1.51
2023-03-13T00:52:21.521Z,1.56
2023-03-13T00:57:24.413Z,1.54
2023-03-13T01:02:26.502Z,1.61
2023-03-13T01:07:30.010Z,1.73
2023-03-13T01:12:32.042Z,1.68
2023-03-13T01:17:34.028Z,1.63
2023-03-13T01:22:38.434Z,1.61
2023-03-13T01:27:41.374Z,1.67
2023-03-13T01:32:43.423Z,1.68
2023-03-13T01:37:45.387Z,1.69
2023-03-13T01:42:59.847Z,1.80
2023-03-13T01:48:01.906Z,1.88
2023-03-13T01:53:03.941Z,1.81
2023-03-13T01:58:06.141Z,1.73
2023-03-13T02:03:12.805Z,1.71
2023-03-13T02:08:25.848Z,1.62
2023-03-13T02:13:29.971Z,1.50
2023-03-13T02:18:32.714Z,1.49
2023-03-13T02:23:49.367Z,1.50
2023-03-13T02:28:51.355Z,1.50
2023-03-13T02:33:55.038Z,1.42
2023-03-13T02:39:04.752Z,1.42
2023-03-13T02:44:07.157Z,1.40
2023-03-13T02:49:23.907Z,1.51
2023-03-13T02:54:33.985Z,1.50
2023-03-13T02:59:35.917Z,1.48
2023-03-13T03:04:37.841Z,1.46
2023-03-13T03:09:39.719Z,1.47
2023-03-13T03:14:47.618Z,1.43
2023-03-13T03:19:49.591Z,1.43
2023-03-13T03:24:51.600Z,1.39
2023-03-13T03:29:53.544Z,1.43
2023-03-13T03:34:55.593Z,1.57
2023-03-13T03:39:57.457Z,1.47
2023-03-13T03:45:03.055Z,1.46
2023-03-13T03:50:07.930Z,1.42
2023-03-13T03:55:10.456Z,1.38
2023-03-13T04:00:16.067Z,1.44
2023-03-13T04:05:18.076Z,1.48
2023-03-13T04:10:20.339Z,1.51
2023-03-13T04:15:22.261Z,1.41
2023-03-13T04:20:24.194Z,1.44
2023-03-13T04:25:26.589Z,1.40
2023-03-13T04:30:28.536Z,1.34
2023-03-13T04:35:30.561Z,1.36
2023-03-13T04:40:32.451Z,1.36
2023-03-13T04:45:34.424Z,1.38
2023-03-13T04:50:36.347Z,1.41
2023-03-13T04:55:39.503Z,1.48
2023-03-13T05:00:41.693Z,1.40
2023-03-13T05:05:43.669Z,1.47
2023-03-13T05:10:51.481Z,1.45
2023-03-13T05:15:54.615Z,1.58
2023-03-13T05:20:56.599Z,1.63
2023-03-13T05:25:58.510Z,1.69
2023-03-13T05:31:01.508Z,1.74
2023-03-13T05:36:03.637Z,1.80
2023-03-13T05:41:06.671Z,1.81
2023-03-13T05:46:08.669Z,1.88
2023-03-13T05:51:10.594Z,1.93
2023-03-13T05:56:14.762Z,1.92
2023-03-13T06:01:16.918Z,1.98
2023-03-13T06:06:19.965Z,1.98
2023-03-13T06:11:21.965Z,2.09
2023-03-13T06:16:24.083Z,2.18
2023-03-13T06:21:27.231Z,2.24
2023-03-13T06:26:31.634Z,2.40
2023-03-13T06:31:34.165Z,2.39
2023-03-13T06:36:36.777Z,2.49
2023-03-13T06:41:39.389Z,2.59
2023-03-13T06:46:41.478Z,2.68
2023-03-13T06:51:49.332Z,2.82
2023-03-13T06:56:51.444Z,2.91
2023-03-13T07:01:53.427Z,3.06
2023-03-13T07:06:56.503Z,3.12
2023-03-13T07:11:59.162Z,3.23
2023-03-13T07:17:01.142Z,3.35
2023-03-13T07:22:03.136Z,3.43
2023-03-13T07:27:07.934Z,3.61
2023-03-13T07:32:13.608Z,3.75
2023-03-13T07:37:18.656Z,3.93
2023-03-13T07:42:24.965Z,4.20
2023-03-13T07:47:27.075Z,4.55
2023-03-13T07:52:29.081Z,4.78
2023-03-13T07:57:31.610Z,4.98
2023-03-13T08:02:34.313Z,5.19
2023-03-13T08:07:37.369Z,5.31
2023-03-13T08:12:39.280Z,5.42
2023-03-13T08:17:41.340Z,5.52
2023-03-13T08:22:43.337Z,5.60
2023-03-13T08:27:45.338Z,5.78
2023-03-13T08:32:48.377Z,5.99
2023-03-13T08:37:50.310Z,6.18
2023-03-13T08:42:54.611Z,6.41
2023-03-13T08:47:56.681Z,6.86
2023-03-13T08:52:58.754Z,7.50
2023-03-13T08:58:01.775Z,7.72
2023-03-13T09:03:03.988Z,7.93
2023-03-13T09:08:07.569Z,8.08
2023-03-13T09:13:10.719Z,8.41
2023-03-13T09:18:15.288Z,8.69
2023-03-13T09:23:18.447Z,8.89
2023-03-13T09:28:21.984Z,8.92
2023-03-13T09:33:26.709Z,9.05
2023-03-13T09:38:29.133Z,9.19
2023-03-13T09:44:05.359Z,9.36
2023-03-13T09:49:48.962Z,9.47
2023-03-13T09:55:03.391Z,9.65
2023-03-13T10:00:13.934Z,9.66
2023-03-13T10:05:25.084Z,9.50
2023-03-13T10:10:34.807Z,9.42
2023-03-13T10:15:52.858Z,9.27
2023-03-13T10:21:00.590Z,9.36
2023-03-13T10:26:02.744Z,9.42
2023-03-13T10:31:17.864Z,9.12
2023-03-13T10:36:20.071Z,9.36
2023-03-13T10:41:38.675Z,9.37
2023-03-13T10:46:42.888Z,9.49
2023-03-13T10:51:55.294Z,9.59
2023-03-13T10:57:19.930Z,9.72
2023-03-13T11:02:38.790Z,9.82
2023-03-13T11:07:42.470Z,9.87
2023-03-13T11:12:47.638Z,10.10
2023-03-13T11:18:05.680Z,10.20
2023-03-13T11:23:30.266Z,10.44
2023-03-13T11:28:54.753Z,10.61
2023-03-13T11:34:04.885Z,10.79
2023-03-13T11:39:35.472Z,10.93
2023-03-13T11:45:03.758Z,10.98
2023-03-13T11:50:53.605Z,11.20
2023-03-13T11:56:07.303Z,11.27
2023-03-13T12:01:17.716Z,11.22
2023-03-13T12:06:50.121Z,11.16
2023-03-13T12:12:28.129Z,11.04
2023-03-13T12:17:31.096Z,10.92
2023-03-13T12:22:43.125Z,10.88
2023-03-13T12:27:53.038Z,10.82
2023-03-13T12:33:18.877Z,10.71
2023-03-13T12:38:31.609Z,10.67
2023-03-13T12:43:39.706Z,10.49
2023-03-13T12:48:58.217Z,10.32
2023-03-13T12:54:29.597Z,10.35
2023-03-13T12:59:47.712Z,10.20
2023-03-13T13:04:52.258Z,10.08
2023-03-13T13:10:12.598Z,9.93
2023-03-13T13:15:26.643Z,9.90
2023-03-13T13:20:36.578Z,9.86
2023-03-13T13:25:40.741Z,9.70
2023-03-13T13:30:42.914Z,9.56
2023-03-13T13:35:48.894Z,9.52
2023-03-13T13:41:11.829Z,9.43
2023-03-13T13:46:29.521Z,9.35
2023-03-13T13:51:38.888Z,9.31
2023-03-13T13:56:47.414Z,9.21
2023-03-13T14:02:13.960Z,9.27
2023-03-13T14:07:31.978Z,9.27
2023-03-13T14:12:37.200Z,9.25
2023-03-13T14:17:55.222Z,9.33
2023-03-13T14:23:01.614Z,9.31
2023-03-13T14:28:15.465Z,9.36
2023-03-13T14:33:18.633Z,9.42
2023-03-13T14:38:26.639Z,9.38
2023-03-13T14:43:34.148Z,9.33
2023-03-13T14:48:36.572Z,9.34
2023-03-13T14:53:38.737Z,9.36
2023-03-13T14:58:41.091Z,9.31
2023-03-13T15:03:49.077Z,9.27
2023-03-13T15:09:11.049Z,9.28
2023-03-13T15:14:40.823Z,9.17
2023-03-13T15:19:43.782Z,9.34
2023-03-13T15:24:59.656Z,9.23
2023-03-13T15:30:07.749Z,9.34
2023-03-13T15:35:31.972Z,9.29
2023-03-13T15:40:35.025Z,9.37
2023-03-13T15:45:39.159Z,9.28
2023-03-13T15:50:44.588Z,9.35
2023-03-13T15:55:49.644Z,9.27
2023-03-13T16:00:52.201Z,9.31
2023-03-13T16:05:56.068Z,9.31
2023-03-13T16:10:57.983Z,9.40
2023-03-13T16:16:00.162Z,9.37
2023-03-13T16:21:02.292Z,9.24
2023-03-13T16:26:06.165Z,9.27
2023-03-13T16:31:18.409Z,9.26
2023-03-13T16:36:26.312Z,9.34
2023-03-13T16:41:30.775Z,9.29
2023-03-13T16:46:42.363Z,9.42
2023-03-13T16:51:45.578Z,9.32
2023-03-13T16:56:47.635Z,9.31
2023-03-13T17:01:50.158Z,9.45
2023-03-13T17:06:53.365Z,9.50
2023-03-13T17:11:55.492Z,9.53
2023-03-13T17:16:57.582Z,9.71
2023-03-13T17:22:01.152Z,9.60
2023-03-13T17:27:03.719Z,9.83
2023-03-13T17:32:07.859Z,9.96
2023-03-13T17:37:19.793Z,9.91
2023-03-13T17:42:22.157Z,9.97
2023-03-13T17:47:27.461Z,10.06
2023-03-13T17:52:30.773Z,10.19
2023-03-13T17:58:15.014Z,10.13
2023-03-13T18:03:20.568Z,10.08
2023-03-13T18:08:26.478Z,10.23
2023-03-13T18:13:28.662Z,10.27
2023-03-13T18:18:34.032Z,10.15
2023-03-13T18:23:36.897Z,10.16
2023-03-13T18:28:39.884Z,10.22
2023-03-13T18:33:43.486Z,10.19
2023-03-13T18:38:49.755Z,10.06
2023-03-13T18:43:57.495Z,10.19
2023-03-13T18:49:21.060Z,10.20
2023-03-13T18:54:27.152Z,10.27
2023-03-13T18:59:30.399Z,10.22
2023-03-13T19:04:56.946Z,10.29
2023-03-13T19:10:02.425Z,10.24
2023-03-13T19:15:10.978Z,10.34
2023-03-13T19:20:23.941Z,10.31
2023-03-13T19:25:31.534Z,10.27
2023-03-13T19:30:34.558Z,10.25
2023-03-13T19:35:37.683Z,10.23
2023-03-13T19:40:40.678Z,10.18
2023-03-13T19:45:49.029Z,10.31
2023-03-13T19:50:56.395Z,10.16
2023-03-13T19:56:00.306Z,10.43
2023-03-13T20:01:15.125Z,10.39
2023-03-13T20:06:29.114Z,10.43
2023-03-13T20:11:32.347Z,10.42
2023-03-13T20:16:35.689Z,10.40
2023-03-13T20:21:43.090Z,10.27
2023-03-13T20:26:52.929Z,10.41
2023-03-13T20:32:07.457Z,10.43
2023-03-13T20:37:11.459Z,10.42
2023-03-13T20:42:14.132Z,10.47
2023-03-13T20:47:26.666Z,10.30
2023-03-13T20:52:29.710Z,10.43
2023-03-13T20:57:33.652Z,10.36
2023-03-13T21:02:40.912Z,10.41
2023-03-13T21:07:45.887Z,10.37
2023-03-13T21:12:49.373Z,10.38
2023-03-13T21:17:52.520Z,10.36
2023-03-13T21:22:57.991Z,10.42
2023-03-13T21:28:04.395Z,10.40
2023-03-13T21:33:10.110Z,10.16
2023-03-13T21:38:13.678Z,10.18
2023-03-13T21:43:17.843Z,10.11
2023-03-13T21:48:20.291Z,10.09
2023-03-13T21:53:22.492Z,10.10
2023-03-13T21:58:24.586Z,10.01
2023-03-13T22:03:30.381Z,10.00
2023-03-13T22:08:33.441Z,9.88
2023-03-13T22:13:36.581Z,9.77
2023-03-13T22:18:41.290Z,9.67
2023-03-13T22:23:43.736Z,9.64
2023-03-13T22:28:45.810Z,9.48
2023-03-13T22:33:49.802Z,9.62
2023-03-13T22:38:57.534Z,9.60
2023-03-13T22:43:59.742Z,9.72
2023-03-13T22:49:02.875Z,9.64
2023-03-13T22:54:04.952Z,9.56
2023-03-13T22:59:07.059Z,9.42
2023-03-13T23:04:19.917Z,9.45
2023-03-13T23:09:21.922Z,9.42
2023-03-13T23:14:23.959Z,9.60
2023-03-13T23:19:26.003Z,9.48
2023-03-13T23:24:28.981Z,9.33
2023-03-13T23:29:31.988Z,9.23
2023-03-13T23:34:36.919Z,9.14
2023-03-13T23:39:38.898Z,9.03
2023-03-13T23:44:41.801Z,9.17
2023-03-13T23:49:43.838Z,9.05
2023-03-13T23:54:52.716Z,9.11
